Time;durP1;ratioP1;P1;durP2;ratioP2;P2;SDS_P1;SDS_P2;PMS_P1;PMS_P2;Temp;Humidity;BMP_temperature;BMP_pressure;BME280_temperature;BME280_humidity;BME280_pressure;Samples;Min_cycle;Max_cycle;Signal;HPM_P1;HPM_P2
2022/01/24 00:01:57;;;;;;;21.40;15.70;;;6.30;99.90;;;;;;5052463;28;39542;-77
2022/01/24 00:04:24;;;;;;;22.30;16.20;;;6.30;99.90;;;;;;5074015;28;37483;-77
2022/01/24 00:06:51;;;;;;;21.30;16.17;;;6.30;99.90;;;;;;5070139;27;38421;-77
2022/01/24 00:09:18;;;;;;;21.70;15.40;;;6.30;99.90;;;;;;5056591;28;36260;-77
2022/01/24 00:12:14;;;;;;;18.90;15.47;;;6.30;99.90;;;;;;5055342;28;40599;-77
2022/01/24 00:17:31;;;;;;;18.57;15.00;;;6.30;99.90;;;;;;5075056;27;39455;-77
2022/01/24 00:28:19;;;;;;;29.00;19.57;;;6.30;99.90;;;;;;5073771;28;38940;-77
2022/01/24 00:30:46;;;;;;;24.50;17.47;;;6.20;99.90;;;;;;5059182;28;36563;-77
2022/01/24 00:33:12;;;;;;;23.07;16.33;;;6.20;99.90;;;;;;5079047;28;39087;-77
2022/01/24 00:35:38;;;;;;;20.87;16.43;;;6.20;99.90;;;;;;5050324;28;37451;-77
2022/01/24 00:38:04;;;;;;;21.97;15.77;;;6.20;99.90;;;;;;5034483;28;37097;-76
2022/01/24 00:40:38;;;;;;;22.47;16.00;;;6.20;99.90;;;;;;5037216;28;38224;-77
2022/01/24 00:43:16;;;;;;;20.40;15.93;;;6.30;99.90;;;;;;5032031;28;37941;-77
2022/01/24 00:56:11;;;;;;;19.20;15.03;;;6.40;99.90;;;;;;5038727;28;38747;-77
2022/01/24 00:58:37;;;;;;;21.43;15.00;;;6.30;99.90;;;;;;5044129;28;37291;-77
2022/01/24 01:01:05;;;;;;;21.33;17.00;;;6.30;99.90;;;;;;5035264;28;36144;-76
2022/01/24 01:03:31;;;;;;;21.60;16.07;;;6.30;99.90;;;;;;5033960;28;38833;-77
2022/01/24 01:06:11;;;;;;;20.67;15.70;;;6.30;99.90;;;;;;5033081;28;38475;-77
2022/01/24 01:19:40;;;;;;;23.63;16.67;;;6.40;99.90;;;;;;5032319;28;50004;-77
2022/01/24 01:22:07;;;;;;;22.63;17.83;;;6.40;99.90;;;;;;5032393;28;37349;-77
2022/01/24 01:24:38;;;;;;;19.30;15.57;;;6.40;99.90;;;;;;5028693;28;38991;-77
2022/01/24 01:27:11;;;;;;;21.10;16.60;;;6.40;99.90;;;;;;5032782;28;38184;-77
2022/01/24 01:29:57;;;;;;;23.10;16.37;;;6.40;99.90;;;;;;5034974;28;37029;-77
2022/01/24 01:35:38;;;;;;;25.10;17.80;;;6.40;99.90;;;;;;5026063;28;40517;-77
2022/01/24 01:38:28;;;;;;;;;;;6.50;99.90;;;;;;5056974;28;38930;-77
2022/01/24 01:57:14;;;;;;;24.17;17.60;;;6.50;99.90;;;;;;5075065;27;39164;-77
2022/01/24 01:59:41;;;;;;;24.47;17.90;;;6.50;99.90;;;;;;5073889;28;38791;-77
2022/01/24 02:02:07;;;;;;;23.47;18.37;;;6.50;99.90;;;;;;5074288;28;38586;-77
2022/01/24 02:04:34;;;;;;;28.43;19.63;;;6.50;99.90;;;;;;5063512;28;38678;-77
2022/01/24 02:07:01;;;;;;;31.00;21.07;;;6.50;99.90;;;;;;5076331;27;39063;-77
2022/01/24 02:09:29;;;;;;;28.57;21.37;;;6.50;99.90;;;;;;5053973;28;47027;-77
2022/01/24 02:11:55;;;;;;;27.67;22.17;;;6.50;99.90;;;;;;5053305;28;37824;-77
2022/01/24 02:14:28;;;;;;;28.03;22.37;;;6.50;99.90;;;;;;5076246;28;37261;-77
2022/01/24 02:17:01;;;;;;;27.63;21.07;;;6.50;99.90;;;;;;5053407;28;39137;-77
2022/01/24 02:25:16;;;;;;;27.90;23.30;;;6.60;99.90;;;;;;5078179;28;38181;-77
2022/01/24 02:27:45;;;;;;;30.17;22.63;;;6.60;99.90;;;;;;5073763;28;48479;-77
2022/01/24 02:32:39;;;;;;;29.50;22.13;;;6.60;99.90;;;;;;5081160;28;39173;-77
2022/01/24 02:35:07;;;;;;;28.40;22.70;;;6.50;99.90;;;;;;5076766;27;37407;-76
2022/01/24 02:37:33;;;;;;;29.87;22.73;;;6.60;99.90;;;;;;5061986;28;40412;-77
2022/01/24 02:40:07;;;;;;;28.27;22.30;;;6.60;99.90;;;;;;5083240;28;38488;-77
2022/01/24 02:53:40;;;;;;;28.87;23.20;;;6.50;99.90;;;;;;5072828;28;49721;-77
2022/01/24 02:56:07;;;;;;;28.80;22.50;;;6.50;99.90;;;;;;5077592;27;37725;-77
2022/01/24 02:58:34;;;;;;;27.90;21.87;;;6.50;99.90;;;;;;5063399;28;40210;-79
2022/01/24 03:01:01;;;;;;;32.27;24.23;;;6.50;99.90;;;;;;5083652;28;38714;-77
2022/01/24 03:03:27;;;;;;;31.07;23.90;;;6.50;99.90;;;;;;5061954;28;47306;-77
2022/01/24 03:05:53;;;;;;;34.23;23.80;;;6.50;99.90;;;;;;5062720;28;36660;-77
2022/01/24 03:08:21;;;;;;;27.77;21.30;;;6.50;99.90;;;;;;5074622;28;37983;-77
2022/01/24 03:10:48;;;;;;;32.13;23.17;;;6.50;99.90;;;;;;5069798;28;39785;-77
2022/01/24 03:15:50;;;;;;;31.80;24.33;;;6.40;99.90;;;;;;5072608;27;37467;-77
2022/01/24 03:18:17;;;;;;;32.30;23.43;;;6.40;99.90;;;;;;5077530;27;38461;-77
2022/01/24 03:20:44;;;;;;;30.77;23.10;;;6.40;99.90;;;;;;5059119;28;37163;-77
2022/01/24 03:23:16;;;;;;;36.20;24.73;;;6.40;99.90;;;;;;5077328;27;41345;-77
2022/01/24 03:25:43;;;;;;;31.73;23.37;;;6.40;99.90;;;;;;5057681;28;38147;-77
2022/01/24 03:28:10;;;;;;;35.40;24.93;;;6.40;99.90;;;;;;5051264;28;39288;-77
2022/01/24 03:30:38;;;;;;;29.87;22.67;;;6.40;99.90;;;;;;5068669;28;38244;-77
2022/01/24 03:33:06;;;;;;;34.80;24.73;;;6.40;99.90;;;;;;5070533;27;39164;-77
2022/01/24 03:35:33;;;;;;;31.33;22.70;;;6.40;99.90;;;;;;5069851;28;38415;-78
2022/01/24 03:38:00;;;;;;;34.00;22.90;;;6.40;99.90;;;;;;5079139;27;39877;-77
2022/01/24 03:40:26;;;;;;;30.27;23.27;;;6.40;99.90;;;;;;5058251;28;39219;-77
2022/01/24 03:42:52;;;;;;;30.63;23.73;;;6.40;99.90;;;;;;5059253;28;39186;-78
2022/01/24 03:45:36;;;;;;;31.23;22.50;;;6.40;99.90;;;;;;5075243;28;38313;-77
2022/01/24 03:48:07;;;;;;;32.23;22.50;;;6.30;99.90;;;;;;5077819;28;39943;-77
2022/01/24 03:50:34;;;;;;;32.05;21.90;;;6.30;99.90;;;;;;5083826;27;37969;-77
2022/01/24 03:53:00;;;;;;;31.17;22.77;;;6.20;99.90;;;;;;5062407;28;38525;-77
2022/01/24 03:55:26;;;;;;;33.30;24.07;;;6.30;99.90;;;;;;5059246;27;38007;-77
2022/01/24 03:57:52;;;;;;;33.90;24.07;;;6.20;99.90;;;;;;5055580;28;39462;-77
2022/01/24 04:00:18;;;;;;;30.77;22.50;;;6.30;99.90;;;;;;5059302;28;38501;-77
2022/01/24 04:02:44;;;;;;;31.93;23.60;;;6.30;99.90;;;;;;5074174;27;39086;-77
2022/01/24 04:05:11;;;;;;;30.80;23.23;;;6.30;99.90;;;;;;5057607;27;37895;-77
2022/01/24 04:07:37;;;;;;;33.53;24.20;;;6.30;99.90;;;;;;5078423;27;38706;-77
2022/01/24 04:10:06;;;;;;;33.17;23.03;;;6.30;99.90;;;;;;5057203;28;37576;-77
2022/01/24 04:12:36;;;;;;;30.10;23.03;;;6.30;99.90;;;;;;5057444;28;47466;-77
2022/01/24 04:15:58;;;;;;;33.43;24.63;;;6.30;99.90;;;;;;5058295;28;36489;-77
2022/01/24 04:18:11;;;;;;;33.07;23.83;;;6.30;99.90;;;;;;5057659;27;48920;-78
2022/01/24 04:23:22;;;;;;;37.17;25.97;;;6.20;99.90;;;;;;5071700;28;39406;-78
2022/01/24 04:25:48;;;;;;;37.83;26.43;;;6.10;99.90;;;;;;5058885;28;37867;-77
2022/01/24 04:28:15;;;;;;;42.10;27.83;;;6.10;99.90;;;;;;5053436;28;43194;-77
2022/01/24 04:30:41;;;;;;;37.93;26.10;;;6.20;99.90;;;;;;5057170;28;38370;-78
2022/01/24 04:33:07;;;;;;;39.57;25.03;;;6.20;99.90;;;;;;5072763;28;38966;-77
2022/01/24 04:35:33;;;;;;;41.40;28.53;;;6.20;99.90;;;;;;5073709;28;37335;-78
2022/01/24 04:37:59;;;;;;;43.97;29.50;;;6.20;99.90;;;;;;5065043;27;40266;-77
2022/01/24 04:40:26;;;;;;;47.87;31.17;;;6.20;99.90;;;;;;5076270;27;39521;-77
2022/01/24 04:43:01;;;;;;;46.57;29.70;;;6.30;99.90;;;;;;5077594;28;39563;-78
2022/01/24 04:45:51;;;;;;;48.03;32.80;;;6.20;99.90;;;;;;5075550;27;48953;-77
2022/01/24 04:51:12;;;;;;;49.03;30.63;;;6.20;99.90;;;;;;5032503;27;39151;-77
2022/01/24 04:56:04;;;;;;;53.57;32.57;;;6.10;99.90;;;;;;5077396;28;37464;-77
2022/01/24 04:58:31;;;;;;;50.07;34.00;;;6.10;99.90;;;;;;5057401;28;39806;-77
2022/01/24 05:00:57;;;;;;;54.17;35.17;;;6.10;99.90;;;;;;5056723;28;39705;-78
2022/01/24 05:03:23;;;;;;;55.63;36.80;;;6.10;99.90;;;;;;5077122;27;37256;-77
2022/01/24 05:05:51;;;;;;;55.93;35.57;;;6.10;99.90;;;;;;5056203;28;36809;-77
2022/01/24 05:08:17;;;;;;;54.60;35.07;;;6.10;99.90;;;;;;5053861;27;40740;-77
2022/01/24 05:10:55;;;;;;;61.17;36.20;;;6.00;99.90;;;;;;5072542;28;38316;-77
2022/01/24 05:24:19;;;;;;;61.17;38.57;;;6.00;99.90;;;;;;5070479;28;38842;-77
2022/01/24 05:26:46;;;;;;;59.53;37.43;;;6.00;99.90;;;;;;5059144;27;39135;-77
2022/01/24 05:29:12;;;;;;;58.13;37.33;;;6.00;99.90;;;;;;5053298;28;37991;-77
2022/01/24 05:31:38;;;;;;;58.50;38.03;;;6.00;99.90;;;;;;5056147;28;37335;-78
2022/01/24 05:34:04;;;;;;;58.60;38.90;;;6.00;99.90;;;;;;5076285;28;39136;-77
2022/01/24 05:36:30;;;;;;;63.53;38.67;;;6.00;99.90;;;;;;5055421;28;38755;-77
2022/01/24 05:38:57;;;;;;;59.20;38.93;;;6.00;99.90;;;;;;5058213;28;40078;-77
2022/01/24 05:41:23;;;;;;;61.97;37.33;;;6.00;99.90;;;;;;5052280;28;37179;-77
2022/01/24 05:43:49;;;;;;;61.13;39.43;;;6.00;99.90;;;;;;5059556;28;38418;-77
2022/01/24 05:46:15;;;;;;;65.50;40.43;;;6.00;99.90;;;;;;5060204;27;38255;-78
2022/01/24 05:48:41;;;;;;;54.63;35.80;;;5.90;99.90;;;;;;5057869;28;39353;-77
2022/01/24 05:51:07;;;;;;;56.80;35.93;;;5.90;99.90;;;;;;5056373;28;37457;-77
2022/01/24 05:53:34;;;;;;;55.73;37.20;;;5.90;99.90;;;;;;5059534;28;37944;-77
2022/01/24 05:56:00;;;;;;;55.60;37.27;;;6.00;99.90;;;;;;5050956;28;37162;-77
2022/01/24 05:58:26;;;;;;;56.47;37.83;;;6.00;99.90;;;;;;5059757;28;39659;-77
2022/01/24 06:00:52;;;;;;;57.00;36.30;;;6.00;99.90;;;;;;5056376;28;38058;-77
2022/01/24 06:03:18;;;;;;;56.10;35.37;;;6.00;99.90;;;;;;5059858;28;38021;-77
2022/01/24 06:05:44;;;;;;;60.57;38.27;;;5.90;99.90;;;;;;5057412;28;38075;-77
2022/01/24 06:08:11;;;;;;;53.70;37.07;;;5.90;99.90;;;;;;5054865;27;38712;-77
2022/01/24 06:10:38;;;;;;;52.23;34.33;;;5.90;99.90;;;;;;5057450;28;37840;-77
2022/01/24 06:13:04;;;;;;;54.87;35.20;;;5.80;99.90;;;;;;5058390;27;39230;-76
2022/01/24 06:15:30;;;;;;;52.37;34.17;;;5.90;99.90;;;;;;5053313;28;37746;-77
2022/01/24 06:17:56;;;;;;;52.93;35.67;;;5.90;99.90;;;;;;5050322;28;38877;-77
2022/01/24 06:20:24;;;;;;;55.83;36.90;;;5.90;99.90;;;;;;5054197;27;38298;-77
2022/01/24 06:22:50;;;;;;;58.23;36.87;;;5.90;99.90;;;;;;5051029;28;37616;-76
2022/01/24 06:25:22;;;;;;;51.63;34.30;;;5.90;99.90;;;;;;5049732;28;37535;-76
2022/01/24 06:27:48;;;;;;;54.57;35.60;;;5.90;99.90;;;;;;5068708;28;40477;-77
2022/01/24 06:30:14;;;;;;;53.20;35.20;;;5.90;99.90;;;;;;5052034;27;38304;-77
2022/01/24 06:32:41;;;;;;;54.70;36.37;;;5.90;99.90;;;;;;5058072;27;38293;-76
2022/01/24 06:35:09;;;;;;;58.70;37.83;;;5.90;99.90;;;;;;5056471;28;37345;-77
2022/01/24 06:37:35;;;;;;;57.10;37.10;;;5.90;99.90;;;;;;5069371;28;40133;-77
2022/01/24 06:40:03;;;;;;;54.37;36.73;;;6.00;99.90;;;;;;5062061;28;39714;-77
2022/01/24 06:42:29;;;;;;;57.27;36.60;;;5.90;99.90;;;;;;5058109;28;48264;-77
2022/01/24 06:44:56;;;;;;;57.47;37.73;;;5.90;99.90;;;;;;5059162;28;38706;-77
2022/01/24 06:47:23;;;;;;;59.57;39.03;;;5.90;99.90;;;;;;5076066;28;39803;-77
2022/01/24 06:49:49;;;;;;;58.20;38.00;;;5.80;99.90;;;;;;5059909;28;37127;-76
2022/01/24 06:52:16;;;;;;;62.87;39.13;;;5.80;99.90;;;;;;5067281;27;38141;-79
2022/01/24 06:54:43;;;;;;;50.77;34.93;;;5.80;99.90;;;;;;5058432;28;37934;-79
2022/01/24 06:57:11;;;;;;;57.10;36.50;;;5.80;99.90;;;;;;5053217;28;39061;-79
2022/01/24 06:59:42;;;;;;;53.23;35.73;;;5.80;99.90;;;;;;5077110;28;38778;-79
2022/01/24 07:02:09;;;;;;;54.13;35.80;;;5.80;99.90;;;;;;5051656;28;39498;-79
2022/01/24 07:04:39;;;;;;;55.73;34.77;;;5.80;99.90;;;;;;5056879;28;39391;-79
2022/01/24 07:07:06;;;;;;;56.70;35.83;;;5.80;99.90;;;;;;5077128;27;39405;-79
2022/01/24 07:09:33;;;;;;;59.30;37.90;;;5.80;99.90;;;;;;5060526;28;40945;-79
2022/01/24 07:11:59;;;;;;;66.03;39.77;;;5.90;99.90;;;;;;5059536;28;39327;-79
2022/01/24 07:14:25;;;;;;;63.80;38.90;;;5.80;99.90;;;;;;5076661;28;37985;-79
2022/01/24 07:19:24;;;;;;;55.58;35.75;;;5.80;99.90;;;;;;5077085;28;38676;-80
2022/01/24 07:21:50;;;;;;;52.40;34.47;;;5.80;99.90;;;;;;5076301;27;36849;-80
2022/01/24 07:24:16;;;;;;;55.67;34.60;;;5.80;99.90;;;;;;5075178;28;38774;-79
2022/01/24 07:26:42;;;;;;;55.30;35.43;;;5.80;99.90;;;;;;5055292;28;39860;-79
2022/01/24 07:29:09;;;;;;;55.53;35.37;;;5.90;99.90;;;;;;5057660;28;39822;-79
2022/01/24 07:31:35;;;;;;;53.10;34.00;;;5.90;99.90;;;;;;5059848;28;39458;-78
2022/01/24 07:34:01;;;;;;;54.53;33.93;;;5.90;99.90;;;;;;5058877;28;35896;-79
2022/01/24 07:36:27;;;;;;;51.30;33.13;;;5.80;99.90;;;;;;5036385;28;37276;-79
2022/01/24 07:38:53;;;;;;;51.40;32.60;;;5.80;99.90;;;;;;5038183;28;38398;-79
2022/01/24 07:41:26;;;;;;;50.90;32.67;;;5.80;99.90;;;;;;5055375;28;38090;-79
2022/01/24 07:43:53;;;;;;;50.93;32.97;;;5.80;99.90;;;;;;5043505;28;37060;-78
2022/01/24 07:46:19;;;;;;;49.00;32.70;;;5.80;99.90;;;;;;5037695;28;39279;-79
2022/01/24 07:48:45;;;;;;;53.10;34.10;;;5.80;99.90;;;;;;5029716;28;38758;-79
2022/01/24 07:51:12;;;;;;;48.17;30.40;;;5.80;99.90;;;;;;5038360;27;38457;-79
2022/01/24 07:53:38;;;;;;;48.07;31.13;;;5.80;99.90;;;;;;5041248;28;38190;-78
2022/01/24 07:56:06;;;;;;;50.17;32.33;;;5.80;99.90;;;;;;5033313;28;39597;-80
2022/01/24 07:58:32;;;;;;;54.67;34.13;;;5.80;99.90;;;;;;5039937;28;38425;-80
2022/01/24 08:00:58;;;;;;;48.50;32.83;;;5.90;99.90;;;;;;5049988;28;38921;-80
2022/01/24 08:03:26;;;;;;;51.23;31.97;;;5.90;99.90;;;;;;5044085;28;37734;-79
2022/01/24 08:05:53;;;;;;;46.90;30.57;;;5.90;99.90;;;;;;5039105;28;39085;-79
2022/01/24 08:08:19;;;;;;;48.47;32.83;;;5.80;99.90;;;;;;5037023;28;40130;-79
2022/01/24 08:10:45;;;;;;;51.40;32.17;;;5.90;99.90;;;;;;5050185;28;38643;-80
2022/01/24 08:13:13;;;;;;;49.73;32.63;;;5.90;99.90;;;;;;5035793;28;37702;-79
2022/01/24 08:15:39;;;;;;;48.97;30.77;;;5.90;99.90;;;;;;5035396;28;39088;-80
2022/01/24 08:18:05;;;;;;;48.30;31.33;;;5.90;99.90;;;;;;5034602;28;37966;-79
2022/01/24 08:20:33;;;;;;;46.03;30.47;;;6.00;99.90;;;;;;5039429;28;39453;-79
2022/01/24 08:23:00;;;;;;;49.87;33.00;;;6.00;99.90;;;;;;5040085;28;37046;-79
2022/01/24 08:25:26;;;;;;;54.43;34.70;;;5.90;99.90;;;;;;5050924;28;39765;-79
2022/01/24 08:27:53;;;;;;;53.07;34.60;;;5.90;99.90;;;;;;5053744;28;38619;-79
2022/01/24 08:30:22;;;;;;;51.30;33.53;;;5.90;99.90;;;;;;5038209;28;38371;-80
2022/01/24 08:32:49;;;;;;;50.10;32.97;;;5.90;99.90;;;;;;5034472;28;38050;-79
2022/01/24 08:35:18;;;;;;;50.17;32.07;;;5.90;99.90;;;;;;5048837;28;38320;-79
2022/01/24 08:37:44;;;;;;;52.97;33.43;;;5.90;99.90;;;;;;5064727;28;37592;-79
2022/01/24 08:40:20;;;;;;;49.30;31.83;;;5.90;99.90;;;;;;5081167;27;38520;-79
2022/01/24 08:42:55;;;;;;;46.57;31.90;;;5.90;99.90;;;;;;5082324;27;36469;-79
2022/01/24 08:48:07;;;;;;;49.77;34.43;;;6.00;99.90;;;;;;5080498;27;39635;-79
2022/01/24 08:50:33;;;;;;;53.93;34.53;;;6.00;99.90;;;;;;5079608;27;38277;-80
2022/01/24 08:53:00;;;;;;;51.27;33.93;;;6.10;99.90;;;;;;5064845;28;38585;-79
2022/01/24 08:55:28;;;;;;;49.57;33.63;;;6.10;99.90;;;;;;5064118;27;42075;-79
2022/01/24 08:57:56;;;;;;;57.17;36.80;;;6.10;99.90;;;;;;5065012;28;37603;-80
2022/01/24 09:00:23;;;;;;;49.83;33.57;;;6.20;99.90;;;;;;5081183;28;38069;-79
2022/01/24 09:02:50;;;;;;;49.53;34.40;;;6.20;99.90;;;;;;5081153;28;37639;-79
2022/01/24 09:05:17;;;;;;;48.07;32.60;;;6.20;99.90;;;;;;5082575;27;40309;-79
2022/01/24 09:07:44;;;;;;;52.53;33.77;;;6.20;99.90;;;;;;5064873;28;39718;-79
2022/01/24 09:10:11;;;;;;;47.60;32.80;;;6.10;99.90;;;;;;5066655;27;38373;-79
2022/01/24 09:12:38;;;;;;;49.80;33.80;;;6.10;99.90;;;;;;5062351;28;37560;-79
2022/01/24 09:15:05;;;;;;;51.27;34.23;;;6.00;99.90;;;;;;5066497;28;39915;-79
2022/01/24 09:17:31;;;;;;;52.77;34.30;;;6.00;99.90;;;;;;5081657;27;48751;-79
2022/01/24 09:19:57;;;;;;;51.73;34.07;;;6.00;99.90;;;;;;5079741;28;38288;-79
2022/01/24 09:22:23;;;;;;;53.07;35.83;;;6.00;99.90;;;;;;5059165;28;38061;-79
2022/01/24 09:24:49;;;;;;;50.73;32.73;;;6.00;99.90;;;;;;5079955;28;38904;-79
2022/01/24 09:27:15;;;;;;;51.77;33.40;;;6.00;99.90;;;;;;5056780;28;37349;-79
2022/01/24 09:29:42;;;;;;;61.20;35.83;;;6.10;99.90;;;;;;5077302;28;37186;-79
2022/01/24 09:32:08;;;;;;;53.43;36.07;;;6.10;99.90;;;;;;5072106;27;37313;-78
2022/01/24 09:34:34;;;;;;;56.97;36.47;;;6.30;99.90;;;;;;5075933;28;38506;-78
2022/01/24 09:37:00;;;;;;;54.27;35.80;;;6.30;99.90;;;;;;5079496;28;38837;-79
2022/01/24 09:39:26;;;;;;;54.50;34.93;;;6.30;99.90;;;;;;5082729;28;47183;-79
2022/01/24 09:41:53;;;;;;;49.33;32.83;;;6.50;99.90;;;;;;5062545;28;38075;-79
2022/01/24 09:44:20;;;;;;;53.60;35.13;;;6.50;99.90;;;;;;5064218;28;39946;-78
2022/01/24 09:46:47;;;;;;;50.90;33.80;;;6.50;99.90;;;;;;5077204;27;39596;-79
2022/01/24 09:49:14;;;;;;;52.70;34.37;;;6.60;99.90;;;;;;5079376;28;39766;-78
2022/01/24 09:51:43;;;;;;;47.67;32.53;;;6.50;99.90;;;;;;5077093;28;37185;-79
2022/01/24 09:54:10;;;;;;;50.07;34.33;;;6.60;99.90;;;;;;5076300;28;37947;-78
2022/01/24 09:56:36;;;;;;;51.00;35.13;;;6.60;99.90;;;;;;5075634;28;38118;-79
2022/01/24 09:59:04;;;;;;;50.87;34.70;;;6.60;99.90;;;;;;5059975;28;38125;-79
2022/01/24 10:01:30;;;;;;;49.87;33.87;;;6.50;99.90;;;;;;5075340;27;48479;-79
2022/01/24 10:04:07;;;;;;;49.53;33.37;;;6.40;99.90;;;;;;5073031;28;39819;-79
2022/01/24 10:07:00;;;;;;;52.07;34.37;;;6.50;99.90;;;;;;5053461;28;47319;-79
2022/01/24 10:09:27;;;;;;;;;;;6.60;99.90;;;;;;5057200;28;40134;-78
2022/01/24 10:12:21;;;;;;;49.50;32.73;;;6.60;99.90;;;;;;5054755;28;36724;-79
2022/01/24 10:17:35;;;;;;;46.80;32.20;;;6.60;99.90;;;;;;5073164;28;49572;-79
2022/01/24 10:20:22;;;;;;;47.50;31.83;;;6.60;99.90;;;;;;5053801;28;38089;-76
2022/01/24 10:23:09;;;;;;;50.07;33.77;;;6.70;99.90;;;;;;5076053;28;37035;-78
2022/01/24 10:25:52;;;;;;;50.73;35.43;;;6.70;99.90;;;;;;5056972;28;47013;-78
2022/01/24 10:28:27;;;;;;;58.27;36.30;;;6.70;99.90;;;;;;5076864;28;38784;-79
2022/01/24 10:31:19;;;;;;;54.40;36.20;;;6.70;99.90;;;;;;5072688;27;38101;-79
2022/01/24 10:34:16;;;;;;;59.37;36.57;;;6.50;99.90;;;;;;5076959;28;47825;-79
2022/01/24 10:36:53;;;;;;;52.30;34.70;;;6.40;99.90;;;;;;5058623;28;47332;-79
2022/01/24 10:39:53;;;;;;;55.37;37.07;;;6.30;99.90;;;;;;5057136;28;38617;-79
2022/01/24 10:45:15;;;;;;;55.63;36.77;;;6.30;99.90;;;;;;5075461;28;37956;-79
2022/01/24 10:47:45;;;;;;;56.87;35.93;;;6.20;99.90;;;;;;5075040;28;47280;-79
2022/01/24 10:50:28;;;;;;;57.80;36.77;;;6.20;99.90;;;;;;5074119;27;39431;-79
2022/01/24 10:52:55;;;;;;;53.58;35.92;;;6.30;99.90;;;;;;5057131;28;37989;-79
2022/01/24 10:55:27;;;;;;;55.73;36.77;;;6.50;99.90;;;;;;5072814;27;37159;-79
2022/01/24 10:58:09;;;;;;;61.80;38.30;;;6.50;99.90;;;;;;5058166;28;38711;-79
2022/01/24 11:00:37;;;;;;;57.50;36.60;;;6.50;99.90;;;;;;5059244;28;47449;-78
2022/01/24 11:03:06;;;;;;;57.03;36.87;;;6.50;99.90;;;;;;5055918;28;39624;-78
2022/01/24 11:05:38;;;;;;;57.77;37.70;;;6.60;99.90;;;;;;5069889;27;38198;-79
2022/01/24 11:08:06;;;;;;;60.20;38.93;;;6.50;99.90;;;;;;5053577;28;38866;-79
2022/01/24 11:10:36;;;;;;;54.03;35.53;;;6.30;99.90;;;;;;5063755;28;38673;-79
2022/01/24 11:13:04;;;;;;;55.63;37.10;;;6.40;99.90;;;;;;5068693;28;38319;-78
2022/01/24 11:15:32;;;;;;;53.07;35.87;;;6.60;99.90;;;;;;5060945;28;36200;-79
2022/01/24 11:18:00;;;;;;;51.53;34.07;;;6.80;99.90;;;;;;5058457;28;37668;-79
2022/01/24 11:20:31;;;;;;;52.90;34.67;;;6.90;99.90;;;;;;5058826;27;47095;-79
2022/01/24 11:23:01;;;;;;;54.23;36.17;;;7.00;99.90;;;;;;5060931;28;38078;-79
2022/01/24 11:25:39;;;;;;;55.43;36.57;;;7.10;99.90;;;;;;5059055;27;47200;-79
2022/01/24 11:28:07;;;;;;;59.30;39.13;;;6.90;99.90;;;;;;5079394;28;38571;-79
2022/01/24 11:30:42;;;;;;;55.60;36.23;;;6.90;99.90;;;;;;5060163;28;39636;-79
2022/01/24 11:33:12;;;;;;;55.37;36.50;;;7.10;99.90;;;;;;5081024;28;37836;-79
2022/01/24 11:35:50;;;;;;;58.00;38.00;;;7.00;99.90;;;;;;5061100;28;37875;-79
2022/01/24 11:38:42;;;;;;;53.20;35.07;;;6.80;99.90;;;;;;5081054;28;39022;-79
2022/01/24 11:41:32;;;;;;;56.53;35.57;;;6.80;99.90;;;;;;5077599;27;38478;-79
2022/01/24 11:44:22;;;;;;;50.40;34.97;;;6.90;99.90;;;;;;5082891;28;37908;-79
2022/01/24 11:46:52;;;;;;;52.60;36.57;;;7.00;99.90;;;;;;5078435;27;48578;-79
2022/01/24 11:49:25;;;;;;;50.37;33.80;;;7.20;99.90;;;;;;5080244;28;38885;-79
2022/01/24 11:52:06;;;;;;;54.07;36.27;;;7.30;99.90;;;;;;5064147;28;37455;-79
2022/01/24 11:55:02;;;;;;;51.97;34.37;;;7.00;99.90;;;;;;5085407;28;50041;-79
2022/01/24 11:57:36;;;;;;;60.47;38.17;;;6.80;99.90;;;;;;5083580;27;48297;-79
2022/01/24 12:00:05;;;;;;;53.43;35.90;;;6.80;99.90;;;;;;5080828;28;38903;-77
2022/01/24 12:02:49;;;;;;;51.07;34.90;;;6.80;99.90;;;;;;5063655;27;46714;-79
2022/01/24 12:05:40;;;;;;;52.30;35.77;;;6.80;99.90;;;;;;5061310;27;37153;-80
2022/01/24 12:08:10;;;;;;;64.43;37.17;;;6.80;99.90;;;;;;5079616;27;38271;-80
2022/01/24 12:10:47;;;;;;;51.90;33.67;;;6.90;99.90;;;;;;5079168;27;39750;-80
2022/01/24 12:13:19;;;;;;;58.20;36.40;;;6.80;99.90;;;;;;5078148;27;38746;-79
2022/01/24 12:15:48;;;;;;;55.35;36.20;;;6.80;99.90;;;;;;5055689;28;37612;-79
2022/01/24 12:18:45;;;;;;;52.77;35.97;;;6.90;99.90;;;;;;5069102;27;38190;-79
2022/01/24 12:21:14;;;;;;;50.73;34.53;;;7.00;99.90;;;;;;5054453;27;41624;-79
2022/01/24 12:23:46;;;;;;;49.10;33.67;;;7.10;99.90;;;;;;5081590;28;38356;-79
2022/01/24 12:26:12;;;;;;;52.20;34.33;;;7.00;99.90;;;;;;5047770;28;37189;-78
2022/01/24 12:28:46;;;;;;;53.53;35.80;;;7.10;99.90;;;;;;5058057;28;36335;-80
2022/01/24 12:31:27;;;;;;;54.30;37.13;;;6.90;99.90;;;;;;5062663;27;38990;-79
2022/01/24 12:33:54;;;;;;;116.87;44.07;;;6.70;99.90;;;;;;5061326;28;38617;-79
2022/01/24 12:36:47;;;;;;;89.80;39.40;;;6.70;99.90;;;;;;5075554;27;37696;-79
2022/01/24 12:39:25;;;;;;;55.43;36.73;;;6.90;99.90;;;;;;5076094;28;37209;-80
2022/01/24 12:41:58;;;;;;;52.10;36.00;;;6.90;99.90;;;;;;5073500;27;38655;-79
2022/01/24 12:47:17;;;;;;;53.77;36.80;;;6.90;99.90;;;;;;5078968;27;40676;-79
2022/01/24 12:49:46;;;;;;;49.97;35.23;;;6.90;99.90;;;;;;5062324;28;36504;-80
2022/01/24 12:52:16;;;;;;;67.03;36.33;;;7.00;99.90;;;;;;5082106;27;39977;-80
2022/01/24 12:54:45;;;;;;;54.93;36.03;;;7.10;99.90;;;;;;5076455;28;38552;-79
2022/01/24 12:57:14;;;;;;;73.43;38.87;;;7.10;99.90;;;;;;5067753;27;37843;-80
2022/01/24 12:59:55;;;;;;;65.53;38.30;;;7.10;99.90;;;;;;5074112;28;37380;-80
2022/01/24 13:02:24;;;;;;;50.23;34.23;;;6.90;99.90;;;;;;5079504;27;39620;-80
2022/01/24 13:04:52;;;;;;;51.10;36.10;;;6.90;99.90;;;;;;5078075;28;39274;-79
2022/01/24 13:07:19;;;;;;;49.10;34.93;;;6.80;99.90;;;;;;5076339;27;38091;-79
2022/01/24 13:09:45;;;;;;;49.37;33.73;;;6.70;99.90;;;;;;5077419;28;37242;-79
2022/01/24 13:12:11;;;;;;;50.17;34.13;;;6.90;99.90;;;;;;5065101;27;38444;-79
2022/01/24 13:14:54;;;;;;;51.80;36.07;;;7.00;99.90;;;;;;5059157;28;38516;-79
2022/01/24 13:25:32;;;;;;;50.57;34.57;;;7.00;99.90;;;;;;5077064;27;38622;-79
2022/01/24 13:28:01;;;;;;;51.00;36.13;;;7.20;99.90;;;;;;5057406;28;37852;-79
2022/01/24 13:30:35;;;;;;;50.30;35.13;;;7.10;99.90;;;;;;5057756;27;46523;-79
2022/01/24 13:33:07;;;;;;;46.53;33.60;;;7.00;99.90;;;;;;5056896;28;38574;-79
2022/01/24 13:35:36;;;;;;;49.30;34.80;;;7.20;99.90;;;;;;5061792;28;37423;-80
2022/01/24 13:38:11;;;;;;;49.47;35.43;;;7.40;99.90;;;;;;5064636;28;37064;-79
2022/01/24 13:40:54;;;;;;;49.17;34.50;;;7.50;99.90;;;;;;5078330;27;37889;-81
2022/01/24 13:43:38;;;;;;;53.07;36.70;;;7.30;99.90;;;;;;5072639;27;38828;-80
2022/01/24 13:46:06;;;;;;;50.07;35.03;;;7.30;99.90;;;;;;5056592;27;37579;-80
2022/01/24 13:48:41;;;;;;;50.17;34.23;;;7.20;99.90;;;;;;5061737;28;38618;-80
2022/01/24 13:51:09;;;;;;;52.57;35.13;;;7.10;99.90;;;;;;5076246;27;37219;-80
2022/01/24 13:53:46;;;;;;;49.33;35.00;;;7.10;99.90;;;;;;5060824;28;39422;-80
2022/01/24 13:56:26;;;;;;;49.30;33.83;;;7.10;99.90;;;;;;5075139;28;37387;-80
2022/01/24 13:59:19;;;;;;;50.50;34.97;;;7.10;99.90;;;;;;5071291;28;38126;-80
2022/01/24 14:02:19;;;;;;;50.20;34.35;;;7.10;99.90;;;;;;5056935;27;47533;-80
2022/01/24 14:04:48;;;;;;;49.43;33.27;;;7.10;99.90;;;;;;5065282;28;47152;-80
2022/01/24 14:07:20;;;;;;;54.80;34.80;;;7.10;99.90;;;;;;5061987;28;38933;-80
2022/01/24 14:10:00;;;;;;;52.58;35.88;;;7.10;99.90;;;;;;5073385;28;38140;-80
2022/01/24 14:12:34;;;;;;;49.93;32.97;;;7.00;99.90;;;;;;5075121;28;38236;-79
2022/01/24 14:15:10;;;;;;;51.43;34.83;;;6.90;99.90;;;;;;5076855;28;39240;-80
2022/01/24 14:20:17;;;;;;;50.57;33.97;;;6.80;99.90;;;;;;5080495;28;38457;-80
2022/01/24 14:22:53;;;;;;;;;;;6.80;99.90;;;;;;5075203;28;38405;-80
2022/01/24 14:25:25;;;;;;;49.30;32.87;;;6.90;99.90;;;;;;5056878;27;39343;-80
2022/01/24 14:28:03;;;;;;;52.40;35.00;;;6.90;99.90;;;;;;5057110;28;38232;-80
2022/01/24 14:30:38;;;;;;;51.97;34.07;;;6.90;99.90;;;;;;5053549;27;47286;-80
2022/01/24 14:33:19;;;;;;;52.83;36.27;;;6.80;99.90;;;;;;5060908;28;36540;-79
2022/01/24 14:35:56;;;;;;;50.30;33.63;;;6.80;99.90;;;;;;5060122;28;40645;-80
2022/01/24 14:38:39;;;;;;;50.73;34.43;;;6.70;99.90;;;;;;5060974;28;37782;-80
2022/01/24 14:41:18;;;;;;;47.80;32.08;;;6.70;99.90;;;;;;5059948;28;37247;-79
2022/01/24 14:46:38;;;;;;;48.77;32.97;;;6.50;99.90;;;;;;5066066;28;49048;-79
2022/01/24 14:49:07;;;;;;;49.70;34.40;;;6.50;99.90;;;;;;5073118;28;38807;-79
2022/01/24 14:51:39;;;;;;;48.07;34.43;;;6.40;99.90;;;;;;5054511;28;37396;-79
2022/01/24 14:54:11;;;;;;;51.10;35.53;;;6.40;99.90;;;;;;5054682;28;36634;-79
2022/01/24 14:56:39;;;;;;;54.27;35.17;;;6.40;99.90;;;;;;5054489;28;38018;-80